Time;durP1;ratioP1;P1;durP2;ratioP2;P2;SDS_P1;SDS_P2;PMS_P1;PMS_P2;Temp;Humidity;BMP_temperature;BMP_pressure;BME280_temperature;BME280_humidity;BME280_pressure;Samples;Min_cycle;Max_cycle;Signal;HPM_P1;HPM_P2
2022/05/09 00:03:25;;;;;;;;;;;;;;;;;;8305552;28;29955;-64
2022/05/09 00:07:25;;;;;;;;;;;;;;;;;;8303640;28;27481;-64
2022/05/09 00:11:26;;;;;;;;;;;;;;;;;;8302602;28;28226;-64
2022/05/09 00:15:26;;;;;;;;;;;;;;;;;;8306433;28;28323;-65
2022/05/09 00:19:26;;;;;;;;;;;;;;;;;;8304374;28;28725;-64
2022/05/09 00:23:26;;;;;;;;;;;;;;;;;;8307671;28;27510;-64
2022/05/09 00:27:26;;;;;;;;;;;;;;;;;;8304230;28;27553;-64
2022/05/09 00:31:26;;;;;;;;;;;;;;;;;;8304173;28;27483;-64
2022/05/09 00:35:26;;;;;;;;;;;;;;;;;;8303547;28;27750;-64
2022/05/09 00:39:26;;;;;;;;;;;;;;;;;;8304126;28;27841;-64
2022/05/09 00:43:27;;;;;;;;;;;;;;;;;;8307060;28;27238;-64
2022/05/09 00:47:27;;;;;;;;;;;;;;;;;;8305828;28;27406;-64
2022/05/09 00:51:27;;;;;;;;;;;;;;;;;;8318284;28;28147;-65
2022/05/09 00:55:27;;;;;;;;;;;;;;;;;;8304135;28;27311;-64
2022/05/09 00:59:27;;;;;;;;;;;;;;;;;;8306970;28;27527;-65
2022/05/09 01:03:27;;;;;;;;;;;;;;;;;;8317018;28;28751;-64
2022/05/09 01:07:27;;;;;;;;;;;;;;;;;;8307618;28;27173;-64
2022/05/09 01:11:27;;;;;;;;;;;;;;;;;;8304315;28;27255;-64
2022/05/09 01:15:28;;;;;;;;;;;;;;;;;;8306824;28;27784;-64
2022/05/09 01:19:28;;;;;;;;;;;;;;;;;;8304917;28;28250;-64
2022/05/09 01:23:28;;;;;;;;;;;;;;;;;;8307598;28;27897;-64
2022/05/09 01:27:28;;;;;;;;;;;;;;;;;;8317221;28;28544;-65
2022/05/09 01:31:28;;;;;;;;;;;;;;;;;;8313642;28;27420;-64
2022/05/09 01:35:28;;;;;;;;;;;;;;;;;;8312264;28;27396;-64
2022/05/09 01:39:30;;;;;;;;;;;;;;;;;;8310692;28;28619;-64
2022/05/09 01:43:33;;;;;;;;;;;;;;;;;;8307973;28;28089;-64
2022/05/09 01:51:51;;;;;;;;;;;;;;;;;;8311294;28;27847;-64
2022/05/09 01:55:52;;;;;;;;;;;;;;;;;;8309032;28;28250;-64
2022/05/09 01:59:52;;;;;;;;;;;;;;;;;;8310695;28;27886;-64
2022/05/09 02:03:52;;;;;;;;;;;;;;;;;;8309871;28;27653;-64
2022/05/09 02:07:52;;;;;;;;;;;;;;;;;;8307585;28;27907;-64
2022/05/09 02:11:52;;;;;;;;;;;;;;;;;;8306155;28;27524;-64
2022/05/09 02:15:52;;;;;;;;;;;;;;;;;;8309480;28;27615;-64
2022/05/09 02:19:54;;;;;;;;;;;;;;;;;;8308076;28;28563;-64
2022/05/09 02:23:54;;;;;;;;;;;;;;;;;;8313172;28;28350;-64
2022/05/09 02:27:54;;;;;;;;;;;;;;;;;;8311214;28;27740;-64
2022/05/09 02:31:55;;;;;;;;;;;;;;;;;;8306250;28;27630;-64
2022/05/09 02:35:55;;;;;;;;;;;;;;;;;;8310697;28;27885;-64
2022/05/09 02:39:55;;;;;;;;;;;;;;;;;;8309094;28;27479;-65
2022/05/09 02:43:56;;;;;;;;;;;;;;;;;;8309774;28;28361;-63
2022/05/09 02:47:56;;;;;;;;;;;;;;;;;;8308668;28;27554;-64
2022/05/09 02:51:56;;;;;;;;;;;;;;;;;;8308593;28;27244;-65
2022/05/09 02:55:56;;;;;;;;;;;;;;;;;;8304551;28;27201;-65
2022/05/09 02:59:56;;;;;;;;;;;;;;;;;;8308681;28;27923;-64
2022/05/09 03:08:15;;;;;;;;;;;;;;;;;;8310865;28;27660;-64
2022/05/09 03:12:18;;;;;;;;;;;;;;;;;;8305489;28;27865;-64
2022/05/09 03:16:18;;;;;;;;;;;;;;;;;;8304212;28;27495;-64
2022/05/09 03:20:18;;;;;;;;;;;;;;;;;;8300735;28;28930;-64
2022/05/09 03:24:19;;;;;;;;;;;;;;;;;;8305929;28;27763;-64
2022/05/09 03:28:19;;;;;;;;;;;;;;;;;;8312989;28;28686;-64
2022/05/09 03:32:19;;;;;;;;;;;;;;;;;;8302909;28;27369;-64
2022/05/09 03:36:20;;;;;;;;;;;;;;;;;;8302814;28;27244;-64
2022/05/09 03:40:21;;;;;;;;;;;;;;;;;;8307021;28;27792;-64
2022/05/09 03:44:21;;;;;;;;;;;;;;;;;;8314593;28;28431;-64
2022/05/09 03:48:21;;;;;;;;;;;;;;;;;;8308012;28;27778;-64
2022/05/09 03:52:21;;;;;;;;;;;;;;;;;;8302473;28;27195;-64
2022/05/09 03:56:21;;;;;;;;;;;;;;;;;;8304381;28;29008;-64
2022/05/09 04:00:21;;;;;;;;;;;;;;;;;;8293175;28;27503;-64
2022/05/09 04:04:21;;;;;;;;;;;;;;;;;;8305495;28;27991;-65
2022/05/09 04:08:21;;;;;;;;;;;;;;;;;;8303474;28;27496;-64
2022/05/09 04:12:22;;;;;;;;;;;;;;;;;;8302726;28;27586;-64
2022/05/09 04:20:41;;;;;;;;;;;;;;;;;;8303031;28;28631;-65
2022/05/09 04:24:42;;;;;;;;;;;;;;;;;;8308714;28;27612;-64
2022/05/09 04:28:43;;;;;;;;;;;;;;;;;;8306210;28;27633;-64
2022/05/09 04:32:43;;;;;;;;;;;;;;;;;;8304223;28;27247;-64
2022/05/09 04:36:43;;;;;;;;;;;;;;;;;;8309674;28;27699;-64
2022/05/09 04:40:44;;;;;;;;;;;;;;;;;;8307488;28;28888;-64
2022/05/09 04:44:44;;;;;;;;;;;;;;;;;;8302637;28;27819;-64
2022/05/09 04:48:46;;;;;;;;;;;;;;;;;;8306805;28;27454;-64
2022/05/09 04:52:46;;;;;;;;;;;;;;;;;;8306250;28;28115;-64
2022/05/09 04:56:46;;;;;;;;;;;;;;;;;;8306971;28;27597;-64
2022/05/09 05:00:46;;;;;;;;;;;;;;;;;;8318079;28;29446;-64
2022/05/09 05:04:46;;;;;;;;;;;;;;;;;;8311262;28;27571;-64
2022/05/09 05:08:46;;;;;;;;;;;;;;;;;;8307618;28;27151;-64
2022/05/09 05:12:46;;;;;;;;;;;;;;;;;;8311821;28;28315;-64
2022/05/09 05:17:02;;;;;;;;;;;;;;;;;;8310640;28;28077;-64
2022/05/09 05:21:02;;;;;;;;;;;;;;;;;;8310749;28;28249;-64
2022/05/09 05:25:02;;;;;;;;;;;;;;;;;;8313685;28;27475;-65
2022/05/09 05:29:02;;;;;;;;;;;;;;;;;;8309350;28;27845;-64
2022/05/09 05:33:03;;;;;;;;;;;;;;;;;;8316795;28;28356;-65
2022/05/09 05:37:03;;;;;;;;;;;;;;;;;;8316628;28;27311;-64
2022/05/09 05:41:03;;;;;;;;;;;;;;;;;;8311644;28;28074;-64
2022/05/09 05:45:03;;;;;;;;;;;;;;;;;;8312823;28;27677;-65
2022/05/09 05:49:03;;;;;;;;;;;;;;;;;;8317653;28;27534;-65
2022/05/09 05:53:04;;;;;;;;;;;;;;;;;;8313045;28;27950;-64
2022/05/09 05:57:04;;;;;;;;;;;;;;;;;;8312993;28;27489;-64
2022/05/09 06:01:04;;;;;;;;;;;;;;;;;;8309955;28;27213;-65
2022/05/09 06:05:04;;;;;;;;;;;;;;;;;;8312809;28;27466;-64
2022/05/09 06:09:05;;;;;;;;;;;;;;;;;;8309899;28;27393;-65
2022/05/09 06:13:05;;;;;;;;;;;;;;;;;;8309454;28;27508;-64
2022/05/09 06:17:05;;;;;;;;;;;;;;;;;;8305829;28;27549;-64
2022/05/09 06:21:06;;;;;;;;;;;;;;;;;;8307582;28;27694;-64
2022/05/09 06:25:06;;;;;;;;;;;;;;;;;;8309903;28;27782;-64
2022/05/09 06:29:06;;;;;;;;;;;;;;;;;;8310779;28;27891;-64
2022/05/09 06:33:06;;;;;;;;;;;;;;;;;;8310774;28;27862;-66
2022/05/09 06:37:06;;;;;;;;;;;;;;;;;;8308060;28;28096;-65
2022/05/09 06:41:10;;;;;;;;;;;;;;;;;;8308516;28;27471;-64
2022/05/09 06:45:10;;;;;;;;;;;;;;;;;;8307417;28;27876;-64
2022/05/09 06:49:10;;;;;;;;;;;;;;;;;;8309619;28;27610;-64
2022/05/09 06:53:10;;;;;;;;;;;;;;;;;;8308493;28;27844;-64
2022/05/09 06:57:10;;;;;;;;;;;;;;;;;;8308438;28;27583;-64
2022/05/09 07:01:11;;;;;;;;;;;;;;;;;;8307749;28;27324;-64
2022/05/09 07:05:11;;;;;;;;;;;;;;;;;;8309378;28;27348;-65
2022/05/09 07:09:12;;;;;;;;;;;;;;;;;;8308671;28;28215;-65
2022/05/09 07:13:12;;;;;;;;;;;;;;;;;;8309298;28;27959;-64
2022/05/09 07:17:12;;;;;;;;;;;;;;;;;;8313388;28;28076;-66
2022/05/09 07:21:13;;;;;;;;;;;;;;;;;;8307712;28;27909;-65
2022/05/09 07:25:13;;;;;;;;;;;;;;;;;;8307023;28;28073;-65
2022/05/09 07:29:13;;;;;;;;;;;;;;;;;;8305855;28;28539;-65
2022/05/09 07:33:13;;;;;;;;;;;;;;;;;;8308071;28;28280;-65
2022/05/09 07:37:13;;;;;;;;;;;;;;;;;;8313860;28;28910;-65
2022/05/09 07:41:13;;;;;;;;;;;;;;;;;;8309291;28;27578;-65
2022/05/09 07:45:13;;;;;;;;;;;;;;;;;;8307404;28;27634;-65
2022/05/09 07:49:14;;;;;;;;;;;;;;;;;;8307638;28;29965;-65
2022/05/09 07:53:14;;;;;;;;;;;;;;;;;;8306094;28;27621;-65
2022/05/09 07:57:14;;;;;;;;;;;;;;;;;;8297373;28;28033;-66
2022/05/09 08:01:14;;;;;;;;;;;;;;;;;;8298201;28;27335;-65
2022/05/09 08:05:14;;;;;;;;;;;;;;;;;;8301594;28;27752;-65
2022/05/09 08:09:15;;;;;;;;;;;;;;;;;;8299048;28;28280;-65
2022/05/09 08:13:15;;;;;;;;;;;;;;;;;;8301103;28;27953;-65
2022/05/09 08:17:15;;;;;;;;;;;;;;;;;;8307719;28;27740;-65
2022/05/09 08:21:15;;;;;;;;;;;;;;;;;;8305293;28;27486;-65
2022/05/09 08:25:15;;;;;;;;;;;;;;;;;;8303488;28;27946;-65
2022/05/09 08:29:15;;;;;;;;;;;;;;;;;;8309251;28;27663;-65
2022/05/09 08:33:15;;;;;;;;;;;;;;;;;;8302431;28;27787;-65
2022/05/09 08:37:18;;;;;;;;;;;;;;;;;;8305174;28;28128;-65
2022/05/09 08:41:18;;;;;;;;;;;;;;;;;;8306234;28;27509;-65
2022/05/09 08:45:19;;;;;;;;;;;;;;;;;;8305796;28;27512;-65
2022/05/09 08:49:19;;;;;;;;;;;;;;;;;;8300025;28;27133;-65
2022/05/09 08:53:22;;;;;;;;;;;;;;;;;;8305547;28;27726;-65
2022/05/09 08:57:22;;;;;;;;;;;;;;;;;;8302805;28;27400;-65
2022/05/09 09:01:22;;;;;;;;;;;;;;;;;;8305315;28;27422;-65
2022/05/09 09:05:23;;;;;;;;;;;;;;;;;;8305710;28;27324;-65
2022/05/09 09:09:23;;;;;;;;;;;;;;;;;;8302806;28;28060;-65
2022/05/09 09:13:23;;;;;;;;;;;;;;;;;;8304398;28;27261;-65
2022/05/09 09:17:24;;;;;;;;;;;;;;;;;;8306573;28;27763;-65
2022/05/09 09:21:24;;;;;;;;;;;;;;;;;;8303715;28;27407;-66
2022/05/09 09:25:25;;;;;;;;;;;;;;;;;;8303851;28;27825;-65
2022/05/09 09:29:25;;;;;;;;;;;;;;;;;;8308514;28;28063;-66
2022/05/09 09:33:25;;;;;;;;;;;;;;;;;;8303459;28;27870;-65
2022/05/09 09:37:25;;;;;;;;;;;;;;;;;;8309744;28;28866;-65
2022/05/09 09:41:25;;;;;;;;;;;;;;;;;;8305827;28;27761;-64
2022/05/09 09:45:25;;;;;;;;;;;;;;;;;;8305263;28;27933;-66
2022/05/09 09:49:25;;;;;;;;;;;;;;;;;;8307424;28;27357;-66
2022/05/09 09:53:26;;;;;;;;;;;;;;;;;;8309428;28;27490;-66
2022/05/09 09:57:28;;;;;;;;;;;;;;;;;;8306623;28;27607;-67
2022/05/09 10:01:34;;;;;;;;;;;;;;;;;;8307391;28;28043;-66
2022/05/09 10:05:36;;;;;;;;;;;;;;;;;;8304038;28;28266;-65
2022/05/09 10:09:36;;;;;;;;;;;;;;;;;;8314304;28;27831;-66
2022/05/09 10:13:36;;;;;;;;;;;;;;;;;;8309674;28;27575;-66
2022/05/09 10:17:36;;;;;;;;;;;;;;;;;;8309056;28;27460;-65
2022/05/09 10:25:55;;;;;;;;;;;;;;;;;;8306513;28;28013;-64
2022/05/09 10:29:56;;;;;;;;;;;;;;;;;;8312462;28;27541;-64
2022/05/09 10:33:56;;;;;;;;;;;;;;;;;;8307701;28;27557;-64
2022/05/09 10:37:56;;;;;;;;;;;;;;;;;;8304770;28;27696;-64
2022/05/09 10:41:57;;;;;;;;;;;;;;;;;;8307945;28;27347;-65
2022/05/09 10:45:57;;;;;;;;;;;;;;;;;;8307813;28;28342;-65
2022/05/09 10:49:57;;;;;;;;;;;;;;;;;;8304694;28;28128;-65
2022/05/09 10:53:57;;;;;;;;;;;;;;;;;;8310420;28;27526;-64
2022/05/09 10:57:57;;;;;;;;;;;;;;;;;;8309954;28;27388;-64
2022/05/09 11:02:00;;;;;;;;;;;;;;;;;;8308808;28;27278;-66
2022/05/09 11:06:00;;;;;;;;;;;;;;;;;;8305376;28;27987;-64
2022/05/09 11:10:00;;;;;;;;;;;;;;;;;;8302729;28;27531;-64
2022/05/09 11:14:00;;;;;;;;;;;;;;;;;;8302545;28;28134;-64
2022/05/09 11:18:01;;;;;;;;;;;;;;;;;;8305586;28;28036;-64
2022/05/09 11:22:01;;;;;;;;;;;;;;;;;;8304003;28;28063;-64
2022/05/09 11:26:01;;;;;;;;;;;;;;;;;;8303062;28;27755;-64
2022/05/09 11:30:02;;;;;;;;;;;;;;;;;;8304660;28;27355;-64
2022/05/09 11:34:02;;;;;;;;;;;;;;;;;;8306377;28;28224;-65
2022/05/09 11:38:03;;;;;;;;;;;;;;;;;;8303138;28;28869;-62
2022/05/09 11:43:27;;;;;;;;;;;;;;;;;;8305198;28;27722;-64
2022/05/09 11:46:23;;;;;;;;;;;;;;;;;;8306345;28;27441;-64
2022/05/09 11:50:23;;;;;;;;;;;;;;;;;;8306000;28;28233;-64
2022/05/09 11:54:24;;;;;;;;;;;;;;;;;;8306638;28;28685;-64
2022/05/09 11:58:26;;;;;;;;;;;;;;;;;;8306779;28;29954;-64
2022/05/09 12:02:26;;;;;;;;;;;;;;;;;;8307688;28;27502;-64
2022/05/09 12:06:26;;;;;;;;;;;;;;;;;;8305882;28;27846;-64
2022/05/09 12:10:30;;;;;;;;;;;;;;;;;;8305603;28;27465;-64
2022/05/09 12:14:30;;;;;;;;;;;;;;;;;;8306390;28;27339;-64
2022/05/09 12:18:30;;;;;;;;;;;;;;;;;;8311624;28;28165;-64
2022/05/09 12:22:30;;;;;;;;;;;;;;;;;;8307898;28;27607;-64
2022/05/09 12:26:30;;;;;;;;;;;;;;;;;;8310402;28;27668;-64
2022/05/09 12:30:30;;;;;;;;;;;;;;;;;;8307450;28;27713;-64
2022/05/09 12:34:32;;;;;;;;;;;;;;;;;;8303096;28;27854;-64
2022/05/09 12:38:33;;;;;;;;;;;;;;;;;;8311019;28;30035;-64
2022/05/09 12:42:33;;;;;;;;;;;;;;;;;;8306804;28;27503;-64
2022/05/09 12:46:33;;;;;;;;;;;;;;;;;;8307738;28;27680;-64
2022/05/09 12:50:34;;;;;;;;;;;;;;;;;;8307977;28;27362;-64
2022/05/09 12:54:37;;;;;;;;;;;;;;;;;;8308508;28;27676;-66
2022/05/09 12:58:37;;;;;;;;;;;;;;;;;;8308106;28;27727;-64
2022/05/09 13:02:37;;;;;;;;;;;;;;;;;;8307128;28;28773;-64
2022/05/09 13:06:38;;;;;;;;;;;;;;;;;;8309937;28;27641;-64
2022/05/09 13:10:38;;;;;;;;;;;;;;;;;;8303802;28;27376;-64
2022/05/09 13:14:39;;;;;;;;;;;;;;;;;;8316202;28;27452;-64
2022/05/09 13:18:39;;;;;;;;;;;;;;;;;;8303261;28;27529;-64
2022/05/09 13:22:39;;;;;;;;;;;;;;;;;;8311004;28;27516;-64
2022/05/09 13:26:39;;;;;;;;;;;;;;;;;;8313168;28;27976;-64
2022/05/09 13:30:39;;;;;;;;;;;;;;;;;;8307507;28;27229;-64
2022/05/09 13:34:40;;;;;;;;;;;;;;;;;;8308707;28;27598;-64
2022/05/09 13:38:40;;;;;;;;;;;;;;;;;;8314600;28;27281;-64
2022/05/09 13:42:40;;;;;;;;;;;;;;;;;;8315181;28;29033;-64
2022/05/09 13:46:41;;;;;;;;;;;;;;;;;;8314125;28;27544;-64
2022/05/09 13:50:41;;;;;;;;;;;;;;;;;;8308058;28;27668;-63
2022/05/09 13:54:41;;;;;;;;;;;;;;;;;;8312480;28;27629;-64
2022/05/09 13:58:41;;;;;;;;;;;;;;;;;;8315298;28;27777;-64
2022/05/09 14:02:41;;;;;;;;;;;;;;;;;;8314515;28;29680;-64
2022/05/09 14:06:41;;;;;;;;;;;;;;;;;;8307784;28;27960;-64
2022/05/09 14:10:42;;;;;;;;;;;;;;;;;;8304516;28;27599;-64
2022/05/09 14:14:42;;;;;;;;;;;;;;;;;;8309304;28;27452;-64
2022/05/09 14:18:42;;;;;;;;;;;;;;;;;;8309606;28;28010;-64
2022/05/09 14:22:42;;;;;;;;;;;;;;;;;;8306608;28;27666;-64
2022/05/09 14:31:01;;;;;;;;;;;;;;;;;;8306810;28;27522;-64
2022/05/09 14:35:01;;;;;;;;;;;;;;;;;;8310235;28;27745;-64
2022/05/09 14:39:03;;;;;;;;;;;;;;;;;;8314718;28;27571;-66
2022/05/09 14:43:04;;;;;;;;;;;;;;;;;;8313301;28;28875;-64
2022/05/09 14:47:05;;;;;;;;;;;;;;;;;;8309820;28;27506;-64
2022/05/09 14:51:06;;;;;;;;;;;;;;;;;;8303310;28;27766;-64
2022/05/09 14:59:28;;;;;;;;;;;;;;;;;;8301335;28;27233;-63
2022/05/09 15:03:29;;;;;;;;;;;;;;;;;;8305974;28;27544;-64
2022/05/09 15:07:29;;;;;;;;;;;;;;;;;;8306200;28;27923;-64
2022/05/09 15:11:31;;;;;;;;;;;;;;;;;;8309171;28;28333;-64
2022/05/09 15:15:32;;;;;;;;;;;;;;;;;;8306002;28;28365;-64
2022/05/09 15:19:32;;;;;;;;;;;;;;;;;;8307283;28;28949;-64
2022/05/09 15:23:33;;;;;;;;;;;;;;;;;;8308763;28;27611;-64
2022/05/09 15:27:33;;;;;;;;;;;;;;;;;;8302418;28;27657;-64
2022/05/09 15:31:33;;;;;;;;;;;;;;;;;;8302008;28;28430;-64
2022/05/09 15:35:33;;;;;;;;;;;;;;;;;;8305450;28;29458;-63
2022/05/09 15:39:34;;;;;;;;;;;;;;;;;;8301226;28;28539;-64
2022/05/09 15:43:35;;;;;;;;;;;;;;;;;;8305057;28;27633;-64
2022/05/09 15:47:35;;;;;;;;;;;;;;;;;;8302120;28;28605;-64
2022/05/09 15:51:37;;;;;;;;;;;;;;;;;;8295376;28;28646;-64
2022/05/09 15:55:37;;;;;;;;;;;;;;;;;;8300607;28;27988;-64
2022/05/09 15:59:37;;;;;;;;;;;;;;;;;;8301821;28;27454;-64
2022/05/09 16:03:37;;;;;;;;;;;;;;;;;;8303577;28;27367;-64
2022/05/09 16:11:56;;;;;;;;;;;;;;;;;;8304071;28;27407;-64
2022/05/09 16:15:58;;;;;;;;;;;;;;;;;;8302102;28;47618;-64
2022/05/09 16:19:58;;;;;;;;;;;;;;;;;;8300535;28;28127;-64
2022/05/09 16:28:02;;;;;;;;;;;;;;;;;;8326050;28;27690;-64
2022/05/09 16:32:03;;;;;;;;;;;;;;;;;;8326833;28;27538;-64
2022/05/09 16:36:06;;;;;;;;;;;;;;;;;;8330570;28;27484;-67
2022/05/09 16:40:06;;;;;;;;;;;;;;;;;;8324730;28;28558;-67
2022/05/09 16:44:06;;;;;;;;;;;;;;;;;;8327137;28;27963;-67
2022/05/09 16:48:06;;;;;;;;;;;;;;;;;;8325086;28;27735;-67
2022/05/09 16:52:07;;;;;;;;;;;;;;;;;;8325910;28;27597;-64
2022/05/09 16:56:07;;;;;;;;;;;;;;;;;;8335405;28;28160;-65
2022/05/09 17:00:07;;;;;;;;;;;;;;;;;;8328298;28;27709;-65
2022/05/09 17:04:07;;;;;;;;;;;;;;;;;;8329421;28;27791;-65
2022/05/09 17:08:07;;;;;;;;;;;;;;;;;;8335519;28;28002;-65
2022/05/09 17:12:07;;;;;;;;;;;;;;;;;;8333232;28;28051;-65
2022/05/09 17:16:08;;;;;;;;;;;;;;;;;;8330918;28;27339;-65
2022/05/09 17:20:08;;;;;;;;;;;;;;;;;;8325498;28;27359;-65
2022/05/09 17:24:08;;;;;;;;;;;;;;;;;;8331911;28;28176;-64
2022/05/09 17:28:08;;;;;;;;;;;;;;;;;;8333048;28;27606;-64
2022/05/09 17:32:09;;;;;;;;;;;;;;;;;;8328639;28;27622;-65
2022/05/09 17:40:27;;;;;;;;;;;;;;;;;;8326200;28;28420;-64
2022/05/09 17:44:27;;;;;;;;;;;;;;;;;;8333767;28;27865;-65
2022/05/09 17:48:28;;;;;;;;;;;;;;;;;;8335724;28;27550;-65
2022/05/09 17:52:28;;;;;;;;;;;;;;;;;;8332161;28;27520;-65
2022/05/09 17:56:28;;;;;;;;;;;;;;;;;;8334382;28;28393;-65
2022/05/09 18:00:28;;;;;;;;;;;;;;;;;;8328852;28;27916;-65
2022/05/09 18:04:28;;;;;;;;;;;;;;;;;;8328605;28;27659;-65
2022/05/09 18:08:29;;;;;;;;;;;;;;;;;;8329344;28;27556;-65
2022/05/09 18:12:29;;;;;;;;;;;;;;;;;;8327507;28;28112;-65
2022/05/09 18:16:29;;;;;;;;;;;;;;;;;;8332605;28;27690;-65
2022/05/09 18:20:29;;;;;;;;;;;;;;;;;;8332674;28;27839;-65
2022/05/09 18:24:29;;;;;;;;;;;;;;;;;;8328307;28;29883;-65
2022/05/09 18:28:29;;;;;;;;;;;;;;;;;;8331404;28;27513;-65
2022/05/09 18:32:29;;;;;;;;;;;;;;;;;;8330900;28;27300;-65
2022/05/09 18:36:30;;;;;;;;;;;;;;;;;;8333654;28;27857;-65
2022/05/09 18:40:30;;;;;;;;;;;;;;;;;;8331437;28;28399;-65
2022/05/09 18:44:30;;;;;;;;;;;;;;;;;;8330575;28;28313;-65
2022/05/09 18:48:30;;;;;;;;;;;;;;;;;;8333503;28;27495;-65
2022/05/09 18:52:36;;;;;;;;;;;;;;;;;;8327784;28;27937;-65
2022/05/09 18:56:36;;;;;;;;;;;;;;;;;;8334854;28;27980;-65
2022/05/09 19:00:36;;;;;;;;;;;;;;;;;;8329908;28;27230;-65
2022/05/09 19:04:36;;;;;;;;;;;;;;;;;;8331218;28;27371;-65
2022/05/09 19:08:37;;;;;;;;;;;;;;;;;;8331692;28;27422;-65
2022/05/09 19:12:37;;;;;;;;;;;;;;;;;;8328229;28;27837;-65
2022/05/09 19:16:38;;;;;;;;;;;;;;;;;;8334849;28;28798;-65
2022/05/09 19:20:38;;;;;;;;;;;;;;;;;;8327049;28;27515;-64
2022/05/09 19:24:38;;;;;;;;;;;;;;;;;;8330063;28;27996;-65
2022/05/09 19:28:41;;;;;;;;;;;;;;;;;;8328896;28;27523;-65
2022/05/09 19:32:41;;;;;;;;;;;;;;;;;;8328365;28;27730;-65
2022/05/09 19:36:41;;;;;;;;;;;;;;;;;;8329828;28;28215;-65
2022/05/09 19:40:41;;;;;;;;;;;;;;;;;;8328604;28;27949;-66
2022/05/09 19:44:41;;;;;;;;;;;;;;;;;;8331834;28;27693;-66
2022/05/09 19:48:41;;;;;;;;;;;;;;;;;;8331907;28;27786;-66
2022/05/09 19:57:01;;;;;;;;;;;;;;;;;;8326137;28;27755;-65
2022/05/09 20:01:01;;;;;;;;;;;;;;;;;;8330012;28;28972;-66
2022/05/09 20:05:01;;;;;;;;;;;;;;;;;;8330800;28;27842;-65
2022/05/09 20:09:01;;;;;;;;;;;;;;;;;;8330009;28;27753;-65
2022/05/09 20:13:01;;;;;;;;;;;;;;;;;;8327860;28;28087;-65
2022/05/09 20:17:01;;;;;;;;;;;;;;;;;;8334981;28;30209;-65
2022/05/09 20:21:01;;;;;;;;;;;;;;;;;;8323857;28;27657;-66
2022/05/09 20:25:02;;;;;;;;;;;;;;;;;;8325954;28;27734;-66
2022/05/09 20:33:21;;;;;;;;;;;;;;;;;;8327129;28;27652;-66
2022/05/09 20:37:21;;;;;;;;;;;;;;;;;;8324815;28;27461;-66
2022/05/09 20:41:21;;;;;;;;;;;;;;;;;;8319161;28;28138;-65
2022/05/09 20:45:21;;;;;;;;;;;;;;;;;;8328223;28;27899;-65
2022/05/09 20:49:21;;;;;;;;;;;;;;;;;;8325569;28;27738;-65
2022/05/09 20:53:21;;;;;;;;;;;;;;;;;;8326354;28;27324;-65
2022/05/09 20:57:21;;;;;;;;;;;;;;;;;;8333541;28;27955;-65
2022/05/09 21:01:21;;;;;;;;;;;;;;;;;;8327142;28;28123;-65
2022/05/09 21:05:22;;;;;;;;;;;;;;;;;;8327474;28;27961;-65
2022/05/09 21:09:23;;;;;;;;;;;;;;;;;;8319716;28;28155;-65
2022/05/09 21:13:23;;;;;;;;;;;;;;;;;;8327695;28;27504;-65
2022/05/09 21:17:23;;;;;;;;;;;;;;;;;;8327737;28;27905;-66
2022/05/09 21:21:24;;;;;;;;;;;;;;;;;;8324104;28;28010;-66
2022/05/09 21:25:24;;;;;;;;;;;;;;;;;;8328654;28;28379;-66
2022/05/09 21:29:24;;;;;;;;;;;;;;;;;;8321882;28;27600;-66
2022/05/09 21:33:24;;;;;;;;;;;;;;;;;;8318908;28;27535;-66
2022/05/09 21:37:24;;;;;;;;;;;;;;;;;;8323406;28;27806;-66
2022/05/09 21:41:25;;;;;;;;;;;;;;;;;;8329159;28;28091;-66
2022/05/09 21:45:26;;;;;;;;;;;;;;;;;;8327790;28;27715;-66
2022/05/09 21:49:26;;;;;;;;;;;;;;;;;;8325485;28;27775;-65
2022/05/09 21:53:26;;;;;;;;;;;;;;;;;;8331853;28;29382;-66
2022/05/09 21:57:26;;;;;;;;;;;;;;;;;;8334265;28;27477;-66
2022/05/09 22:01:26;;;;;;;;;;;;;;;;;;8329071;28;27300;-64
2022/05/09 22:05:26;;;;;;;;;;;;;;;;;;8323997;28;28134;-66
2022/05/09 22:09:27;;;;;;;;;;;;;;;;;;8327214;28;27349;-65
2022/05/09 22:13:27;;;;;;;;;;;;;;;;;;8333986;28;28959;-66
2022/05/09 22:17:27;;;;;;;;;;;;;;;;;;8334220;28;27706;-65
2022/05/09 22:21:27;;;;;;;;;;;;;;;;;;8325648;28;27561;-65
2022/05/09 22:25:28;;;;;;;;;;;;;;;;;;8327492;28;27398;-65
2022/05/09 22:29:28;;;;;;;;;;;;;;;;;;8320565;28;27578;-65
2022/05/09 22:33:28;;;;;;;;;;;;;;;;;;8327987;28;27258;-65
2022/05/09 22:37:28;;;;;;;;;;;;;;;;;;8331394;28;27898;-65
2022/05/09 22:41:29;;;;;;;;;;;;;;;;;;8324001;28;27819;-65
2022/05/09 22:45:29;;;;;;;;;;;;;;;;;;8327081;28;27367;-66
2022/05/09 22:49:29;;;;;;;;;;;;;;;;;;8332074;28;27479;-65
2022/05/09 22:53:29;;;;;;;;;;;;;;;;;;8328260;28;27239;-65
2022/05/09 22:57:29;;;;;;;;;;;;;;;;;;8330245;28;27250;-66
2022/05/09 23:01:29;;;;;;;;;;;;;;;;;;8320831;28;27943;-65
2022/05/09 23:05:29;;;;;;;;;;;;;;;;;;8328182;28;27405;-65
2022/05/09 23:09:30;;;;;;;;;;;;;;;;;;8321752;28;27991;-65
2022/05/09 23:13:30;;;;;;;;;;;;;;;;;;8330965;28;27409;-65
2022/05/09 23:17:30;;;;;;;;;;;;;;;;;;8328768;28;27645;-65
2022/05/09 23:21:30;;;;;;;;;;;;;;;;;;8321262;28;27854;-65
2022/05/09 23:25:30;;;;;;;;;;;;;;;;;;8321428;28;28082;-65
2022/05/09 23:29:30;;;;;;;;;;;;;;;;;;8325714;28;27849;-64
2022/05/09 23:33:30;;;;;;;;;;;;;;;;;;8329192;28;27694;-65
2022/05/09 23:37:30;;;;;;;;;;;;;;;;;;8326587;28;27839;-66
2022/05/09 23:41:31;;;;;;;;;;;;;;;;;;8320826;28;28273;-65
2022/05/09 23:45:31;;;;;;;;;;;;;;;;;;8319376;28;27388;-65
2022/05/09 23:49:31;;;;;;;;;;;;;;;;;;8317448;28;28119;-65
2022/05/09 23:53:32;;;;;;;;;;;;;;;;;;8307489;28;27855;-66
2022/05/09 23:57:32;;;;;;;;;;;;;;;;;;8325419;28;27655;-65
